createdAt,value
2023-06-21T00:00:09.632Z,0.00
2023-06-21T00:01:09.654Z,0.00
2023-06-21T00:02:09.617Z,0.00
2023-06-21T00:03:09.798Z,0.00
2023-06-21T00:04:09.725Z,0.00
2023-06-21T00:05:09.594Z,0.00
2023-06-21T00:06:09.569Z,0.00
2023-06-21T00:07:09.556Z,0.00
2023-06-21T00:08:09.547Z,0.00
2023-06-21T00:09:09.538Z,0.00
2023-06-21T00:10:09.558Z,0.00
2023-06-21T00:11:09.532Z,0.00
2023-06-21T00:12:09.513Z,0.00
2023-06-21T00:13:09.499Z,0.00
2023-06-21T00:14:09.488Z,0.00
2023-06-21T00:15:09.477Z,0.00
2023-06-21T00:16:09.483Z,0.00
2023-06-21T00:17:09.454Z,0.00
2023-06-21T00:18:09.466Z,0.00
2023-06-21T00:19:09.431Z,0.00
2023-06-21T00:20:09.428Z,0.00
2023-06-21T00:21:09.411Z,0.00
2023-06-21T00:22:09.417Z,0.00
2023-06-21T00:23:09.470Z,0.00
2023-06-21T00:24:09.429Z,0.00
2023-06-21T00:25:09.378Z,0.00
2023-06-21T00:26:09.366Z,0.00
2023-06-21T00:27:09.361Z,0.00
2023-06-21T00:28:09.334Z,0.00
2023-06-21T00:29:09.345Z,0.00
2023-06-21T00:30:09.325Z,0.00
2023-06-21T00:31:09.339Z,0.00
2023-06-21T00:32:09.299Z,0.00
2023-06-21T00:33:09.284Z,0.00
2023-06-21T00:34:09.290Z,0.00
2023-06-21T00:35:09.262Z,0.00
2023-06-21T00:36:09.249Z,0.00
2023-06-21T00:37:09.255Z,0.00
2023-06-21T00:38:09.227Z,0.00
2023-06-21T00:39:09.222Z,0.00
2023-06-21T00:40:09.209Z,0.00
2023-06-21T00:41:09.209Z,0.00
2023-06-21T00:42:09.197Z,0.00
2023-06-21T00:43:09.201Z,0.00
2023-06-21T00:44:09.168Z,0.00
2023-06-21T00:45:09.151Z,0.00
2023-06-21T00:46:09.203Z,0.00
2023-06-21T00:47:09.154Z,0.00
2023-06-21T00:48:09.165Z,0.00
2023-06-21T00:49:09.127Z,0.00
2023-06-21T00:50:09.102Z,0.00
2023-06-21T00:51:09.099Z,0.00
2023-06-21T00:52:09.102Z,0.00
2023-06-21T00:53:09.077Z,0.00
2023-06-21T00:54:09.058Z,0.00
2023-06-21T00:55:09.049Z,0.00
2023-06-21T00:56:09.043Z,0.00
2023-06-21T00:57:09.027Z,0.00
2023-06-21T00:58:09.031Z,0.00
2023-06-21T00:59:09.005Z,0.00
2023-06-21T01:00:08.998Z,0.00
2023-06-21T01:01:08.986Z,0.00
2023-06-21T01:02:09.081Z,0.00
2023-06-21T01:03:09.007Z,0.00
2023-06-21T01:04:08.974Z,0.00
2023-06-21T01:05:08.976Z,0.00
2023-06-21T01:06:08.933Z,0.00
2023-06-21T01:07:08.918Z,0.00
2023-06-21T01:08:08.909Z,0.00
2023-06-21T01:09:08.926Z,0.00
2023-06-21T01:10:08.890Z,0.00
2023-06-21T01:11:08.880Z,0.00
2023-06-21T01:12:08.874Z,0.00
2023-06-21T01:13:08.860Z,0.00
2023-06-21T01:14:08.844Z,0.00
2023-06-21T01:15:08.848Z,0.00
2023-06-21T01:16:08.827Z,0.00
2023-06-21T01:17:08.831Z,0.00
2023-06-21T01:18:08.813Z,0.00
2023-06-21T01:19:08.808Z,0.00
2023-06-21T01:20:08.784Z,0.00
2023-06-21T01:21:08.775Z,0.00
2023-06-21T01:22:08.781Z,0.00
2023-06-21T01:23:08.752Z,0.00
2023-06-21T01:24:08.749Z,0.00
2023-06-21T01:25:08.732Z,0.00
2023-06-21T01:26:08.719Z,0.00
2023-06-21T01:27:08.718Z,0.00
2023-06-21T01:28:08.715Z,0.00
2023-06-21T01:29:08.700Z,0.00
2023-06-21T01:30:08.692Z,0.00
2023-06-21T01:31:08.705Z,0.00
2023-06-21T01:32:08.655Z,0.00
2023-06-21T01:33:08.704Z,0.00
2023-06-21T01:34:08.640Z,0.00
2023-06-21T01:35:10.201Z,0.00
2023-06-21T01:36:08.617Z,0.00
2023-06-21T01:37:08.600Z,0.00
2023-06-21T01:38:08.598Z,0.00
2023-06-21T01:39:08.582Z,0.00
2023-06-21T01:40:08.591Z,0.00
2023-06-21T01:41:08.576Z,0.00
2023-06-21T01:42:08.549Z,0.00
2023-06-21T01:43:08.550Z,0.00
2023-06-21T01:44:08.524Z,0.00
2023-06-21T01:45:08.525Z,0.00
2023-06-21T01:46:08.549Z,0.00
2023-06-21T01:47:08.497Z,0.00
2023-06-21T01:48:08.523Z,0.00
2023-06-21T01:49:08.483Z,0.00
2023-06-21T01:50:08.475Z,0.00
2023-06-21T01:51:08.474Z,0.00
2023-06-21T01:52:08.458Z,0.00
2023-06-21T01:53:08.436Z,0.00
2023-06-21T01:54:08.433Z,0.00
2023-06-21T01:55:08.413Z,0.00
2023-06-21T01:56:08.421Z,0.00
2023-06-21T01:57:08.395Z,0.00
2023-06-21T01:58:08.389Z,0.00
2023-06-21T01:59:08.373Z,0.00
2023-06-21T02:00:08.365Z,0.00
2023-06-21T02:01:08.360Z,0.00
2023-06-21T02:02:08.353Z,0.00
2023-06-21T02:03:08.341Z,0.00
2023-06-21T02:04:08.339Z,0.00
2023-06-21T02:05:08.350Z,0.00
2023-06-21T02:06:08.298Z,0.00
2023-06-21T02:07:08.319Z,0.00
2023-06-21T02:08:08.274Z,0.00
2023-06-21T02:09:08.272Z,0.00
2023-06-21T02:10:08.258Z,0.00
2023-06-21T02:11:08.254Z,0.00
2023-06-21T02:12:08.256Z,0.00
2023-06-21T02:13:08.246Z,0.00
2023-06-21T02:14:08.219Z,0.00
2023-06-21T02:15:08.221Z,0.00
2023-06-21T02:16:08.201Z,0.00
2023-06-21T02:17:08.190Z,0.00
2023-06-21T02:18:08.181Z,0.00
2023-06-21T02:19:08.182Z,0.00
2023-06-21T02:20:08.155Z,0.00
2023-06-21T02:21:08.169Z,0.00
2023-06-21T02:22:08.157Z,0.00
2023-06-21T02:23:08.122Z,0.00
2023-06-21T02:24:08.244Z,0.00
2023-06-21T02:25:08.149Z,0.00
2023-06-21T02:26:08.094Z,0.00
2023-06-21T02:27:08.030Z,0.00
2023-06-21T02:28:08.032Z,0.00
2023-06-21T02:29:08.014Z,0.00
2023-06-21T02:30:08.007Z,0.00
2023-06-21T02:31:08.010Z,0.00
2023-06-21T02:32:07.981Z,0.00
2023-06-21T02:33:08.040Z,0.00
2023-06-21T02:34:08.024Z,0.00
2023-06-21T02:35:07.960Z,0.00
2023-06-21T02:36:07.941Z,0.00
2023-06-21T02:37:07.947Z,0.00
2023-06-21T02:38:07.926Z,0.00
2023-06-21T02:39:07.936Z,0.00
2023-06-21T02:40:07.898Z,0.00
2023-06-21T02:41:07.895Z,0.00
2023-06-21T02:42:07.877Z,0.00
2023-06-21T02:43:07.886Z,0.00
2023-06-21T02:44:07.851Z,0.00
2023-06-21T02:45:07.851Z,0.00
2023-06-21T02:46:07.871Z,0.00
2023-06-21T02:47:07.839Z,0.00
2023-06-21T02:48:07.897Z,0.00
2023-06-21T02:49:07.803Z,0.00
2023-06-21T02:50:07.801Z,0.00
2023-06-21T02:51:07.784Z,0.00
2023-06-21T02:52:07.780Z,0.00
2023-06-21T02:53:07.778Z,0.00
2023-06-21T02:54:07.747Z,0.00
2023-06-21T02:55:07.735Z,0.00
2023-06-21T02:56:07.738Z,0.00
2023-06-21T02:57:07.724Z,0.00
2023-06-21T02:58:07.713Z,0.00
2023-06-21T02:59:07.708Z,0.00
2023-06-21T03:00:07.678Z,0.00
2023-06-21T03:01:07.721Z,0.00
2023-06-21T03:02:07.672Z,0.00
2023-06-21T03:03:07.735Z,0.00
2023-06-21T03:04:07.738Z,0.00
2023-06-21T03:05:07.652Z,0.00
2023-06-21T03:06:07.623Z,0.00
2023-06-21T03:07:07.611Z,0.00
2023-06-21T03:08:07.611Z,0.00
2023-06-21T03:09:07.598Z,0.00
2023-06-21T03:10:07.586Z,0.00
2023-06-21T03:11:07.571Z,0.00
2023-06-21T03:12:07.581Z,0.00
2023-06-21T03:13:07.580Z,0.00
2023-06-21T03:14:07.567Z,0.00
2023-06-21T03:15:07.556Z,0.00
2023-06-21T03:16:07.568Z,0.00
2023-06-21T03:17:07.505Z,0.00
2023-06-21T03:18:07.574Z,0.00
2023-06-21T03:19:07.482Z,0.00
2023-06-21T03:20:07.476Z,0.00
2023-06-21T03:21:07.486Z,0.00
2023-06-21T03:22:07.452Z,0.00
2023-06-21T03:23:07.435Z,0.00
2023-06-21T03:24:07.504Z,5.62
2023-06-21T03:25:07.413Z,0.00
2023-06-21T03:26:07.430Z,5.62
2023-06-21T03:27:07.405Z,5.62
2023-06-21T03:28:07.395Z,5.62
2023-06-21T03:29:07.376Z,5.62
2023-06-21T03:30:07.378Z,5.62
2023-06-21T03:31:07.399Z,5.62
2023-06-21T03:32:07.352Z,5.62
2023-06-21T03:33:07.354Z,5.62
2023-06-21T03:34:07.318Z,5.62
2023-06-21T03:35:07.313Z,5.62
2023-06-21T03:36:07.311Z,5.62
2023-06-21T03:37:07.306Z,5.62
2023-06-21T03:38:07.305Z,5.62
2023-06-21T03:39:07.270Z,5.62
2023-06-21T03:40:07.259Z,5.62
2023-06-21T03:41:07.244Z,5.62
2023-06-21T03:42:07.236Z,5.62
2023-06-21T03:43:07.233Z,5.62
2023-06-21T03:44:07.227Z,5.62
2023-06-21T03:45:07.245Z,11.25
2023-06-21T03:46:07.265Z,11.25
2023-06-21T03:47:07.188Z,11.25
2023-06-21T03:48:07.274Z,11.25
2023-06-21T03:49:07.160Z,11.25
2023-06-21T03:50:07.175Z,11.25
2023-06-21T03:51:07.166Z,11.25
2023-06-21T03:52:07.137Z,16.88
2023-06-21T03:53:07.127Z,16.88
2023-06-21T03:54:07.103Z,16.88
2023-06-21T03:55:07.103Z,22.50
2023-06-21T03:56:07.092Z,16.88
2023-06-21T03:57:07.104Z,16.88
2023-06-21T03:58:07.067Z,16.88
2023-06-21T03:59:07.081Z,16.88
2023-06-21T04:00:07.070Z,16.88
2023-06-21T04:01:07.039Z,22.50
2023-06-21T04:02:07.102Z,22.50
2023-06-21T04:03:07.075Z,16.88
2023-06-21T04:04:07.152Z,16.88
2023-06-21T04:05:07.002Z,16.88
2023-06-21T04:06:06.989Z,22.50
2023-06-21T04:07:07.001Z,16.88
2023-06-21T04:08:06.966Z,16.88
2023-06-21T04:09:06.955Z,16.88
2023-06-21T04:10:06.951Z,16.88
2023-06-21T04:11:06.934Z,22.50
2023-06-21T04:12:06.930Z,22.50
2023-06-21T04:13:06.985Z,28.12
2023-06-21T04:14:06.920Z,28.12
2023-06-21T04:15:06.940Z,28.12
2023-06-21T04:16:06.886Z,22.50
2023-06-21T04:17:06.930Z,33.75
2023-06-21T04:18:06.939Z,28.12
2023-06-21T04:19:06.873Z,39.38
2023-06-21T04:20:06.867Z,28.12
2023-06-21T04:21:06.834Z,28.12
2023-06-21T04:22:06.821Z,33.75
2023-06-21T04:23:06.818Z,33.75
2023-06-21T04:24:06.846Z,28.12
2023-06-21T04:25:06.801Z,33.75
2023-06-21T04:26:06.839Z,39.38
2023-06-21T04:27:06.765Z,39.38
2023-06-21T04:28:06.760Z,45.00
2023-06-21T04:29:06.744Z,39.38
2023-06-21T04:30:06.757Z,33.75
2023-06-21T04:31:06.801Z,45.00
2023-06-21T04:32:06.715Z,39.38
2023-06-21T04:33:06.703Z,50.62
2023-06-21T04:34:06.700Z,45.00
2023-06-21T04:35:06.685Z,45.00
2023-06-21T04:36:06.685Z,39.38
2023-06-21T04:37:06.671Z,45.00
2023-06-21T04:38:06.653Z,50.62
2023-06-21T04:39:06.648Z,50.62
2023-06-21T04:40:16.462Z,33.75
2023-06-21T04:41:06.635Z,45.00
2023-06-21T04:42:06.616Z,33.75
2023-06-21T04:43:06.602Z,33.75
2023-06-21T04:44:06.603Z,56.25
2023-06-21T04:45:06.579Z,50.62
2023-06-21T04:46:06.607Z,50.62
2023-06-21T04:47:06.559Z,56.25
2023-06-21T04:48:06.616Z,67.50
2023-06-21T04:49:06.556Z,56.25
2023-06-21T04:50:20.120Z,45.00
2023-06-21T04:51:06.523Z,61.88
2023-06-21T04:52:06.505Z,61.88
2023-06-21T04:53:06.508Z,56.25
2023-06-21T04:54:06.587Z,56.25
2023-06-21T04:55:06.462Z,50.62
2023-06-21T04:56:06.468Z,56.25
2023-06-21T04:57:06.491Z,73.12
2023-06-21T04:58:06.435Z,56.25
2023-06-21T04:59:06.434Z,56.25
2023-06-21T05:00:06.428Z,61.88
2023-06-21T05:01:06.418Z,73.12
2023-06-21T05:02:06.455Z,56.25
2023-06-21T05:03:06.456Z,56.25
2023-06-21T05:04:06.376Z,73.12
2023-06-21T05:05:06.381Z,73.12
2023-06-21T05:06:06.383Z,73.12
2023-06-21T05:07:06.364Z,56.25
2023-06-21T05:08:06.334Z,50.62
2023-06-21T05:09:06.330Z,73.12
2023-06-21T05:10:06.313Z,61.88
2023-06-21T05:11:06.328Z,67.50
2023-06-21T05:12:06.287Z,73.12
2023-06-21T05:13:06.286Z,73.12
2023-06-21T05:14:06.267Z,67.50
2023-06-21T05:15:06.815Z,78.75
2023-06-21T05:16:06.263Z,84.38
2023-06-21T05:17:06.241Z,61.88
2023-06-21T05:18:06.239Z,67.50
2023-06-21T05:19:06.223Z,84.38
2023-06-21T05:20:06.246Z,73.12
2023-06-21T05:21:06.208Z,73.12
2023-06-21T05:22:06.182Z,73.12
2023-06-21T05:23:06.176Z,73.12
2023-06-21T05:24:06.187Z,78.75
2023-06-21T05:25:06.165Z,78.75
2023-06-21T05:26:06.158Z,78.75
2023-06-21T05:27:06.136Z,67.50
2023-06-21T05:28:06.130Z,73.12
2023-06-21T05:29:06.115Z,73.12
2023-06-21T05:30:06.108Z,78.75
2023-06-21T05:31:06.138Z,84.38
2023-06-21T05:32:06.095Z,90.00
2023-06-21T05:33:06.098Z,90.00
2023-06-21T05:34:06.059Z,95.62
2023-06-21T05:35:06.060Z,101.25
2023-06-21T05:36:06.050Z,118.12
2023-06-21T05:37:06.084Z,157.50
2023-06-21T05:38:06.014Z,174.38
2023-06-21T05:39:06.008Z,191.25
2023-06-21T05:40:05.993Z,230.62
2023-06-21T05:41:06.003Z,236.25
2023-06-21T05:42:05.992Z,281.25
2023-06-21T05:43:05.965Z,326.25
2023-06-21T05:44:05.969Z,382.50
2023-06-21T05:45:05.952Z,376.88
2023-06-21T05:46:05.982Z,298.12
2023-06-21T05:47:05.926Z,309.38
2023-06-21T05:48:05.968Z,337.50
2023-06-21T05:49:05.920Z,253.12
2023-06-21T05:50:05.923Z,213.75
2023-06-21T05:51:05.880Z,270.00
2023-06-21T05:52:05.877Z,371.25
2023-06-21T05:53:05.877Z,421.88
2023-06-21T05:54:05.853Z,326.25
2023-06-21T05:55:05.851Z,275.62
2023-06-21T05:56:05.831Z,309.38
2023-06-21T05:57:05.822Z,286.88
2023-06-21T05:58:05.833Z,354.38
2023-06-21T05:59:05.800Z,309.38
2023-06-21T06:00:05.819Z,253.12
2023-06-21T06:01:19.990Z,309.38
2023-06-21T06:02:05.813Z,281.25
2023-06-21T06:03:05.811Z,298.12
2023-06-21T06:04:05.776Z,236.25
2023-06-21T06:05:05.761Z,202.50
2023-06-21T06:06:05.742Z,236.25
2023-06-21T06:07:05.734Z,185.62
2023-06-21T06:08:05.710Z,157.50
2023-06-21T06:09:05.715Z,236.25
2023-06-21T06:10:05.706Z,208.12
2023-06-21T06:11:05.713Z,213.75
2023-06-21T06:12:07.816Z,213.75
2023-06-21T06:13:05.668Z,191.25
2023-06-21T06:14:05.649Z,135.00
2023-06-21T06:15:05.657Z,95.62
2023-06-21T06:16:05.642Z,78.75
2023-06-21T06:17:05.638Z,67.50
2023-06-21T06:18:05.643Z,73.12
2023-06-21T06:19:05.618Z,73.12
2023-06-21T06:20:05.590Z,73.12
2023-06-21T06:21:05.595Z,73.12
2023-06-21T06:22:05.572Z,73.12
2023-06-21T06:23:05.563Z,84.38
2023-06-21T06:24:05.564Z,78.75
2023-06-21T06:25:05.547Z,78.75
2023-06-21T06:26:05.529Z,73.12
2023-06-21T06:27:05.545Z,73.12
2023-06-21T06:28:05.509Z,73.12
2023-06-21T06:29:05.504Z,73.12
2023-06-21T06:30:05.505Z,73.12
2023-06-21T06:31:05.542Z,73.12
2023-06-21T06:32:05.466Z,78.75
2023-06-21T06:33:05.509Z,78.75
2023-06-21T06:34:05.448Z,73.12
2023-06-21T06:35:05.452Z,84.38
2023-06-21T06:36:05.440Z,78.75
2023-06-21T06:37:13.527Z,78.75
2023-06-21T06:38:05.406Z,78.75
2023-06-21T06:39:05.386Z,101.25
2023-06-21T06:40:05.398Z,101.25
2023-06-21T06:41:05.378Z,90.00
2023-06-21T06:42:05.378Z,84.38
2023-06-21T06:43:05.365Z,84.38
2023-06-21T06:44:05.341Z,73.12
2023-06-21T06:45:05.336Z,106.88
2023-06-21T06:46:05.324Z,95.62
2023-06-21T06:47:05.324Z,118.12
2023-06-21T06:48:05.315Z,123.75
2023-06-21T06:49:05.298Z,73.12
2023-06-21T06:50:05.331Z,84.38
2023-06-21T06:51:05.290Z,101.25
2023-06-21T06:52:05.255Z,112.50
2023-06-21T06:53:05.248Z,90.00
2023-06-21T06:54:05.237Z,78.75
2023-06-21T06:55:05.354Z,101.25
2023-06-21T06:56:05.215Z,106.88
2023-06-21T06:57:05.212Z,101.25
2023-06-21T06:58:06.543Z,101.25
2023-06-21T06:59:05.277Z,101.25
2023-06-21T07:00:05.172Z,84.38
2023-06-21T07:01:05.190Z,78.75
2023-06-21T07:02:05.170Z,90.00
2023-06-21T07:03:05.256Z,106.88
2023-06-21T07:04:05.222Z,84.38
2023-06-21T07:05:05.167Z,84.38
2023-06-21T07:06:05.113Z,73.12
2023-06-21T07:07:05.116Z,73.12
2023-06-21T07:08:05.108Z,73.12
2023-06-21T07:09:05.102Z,84.38
2023-06-21T07:10:05.090Z,90.00
2023-06-21T07:11:05.057Z,84.38
2023-06-21T07:12:05.052Z,73.12
2023-06-21T07:13:05.057Z,78.75
2023-06-21T07:14:05.036Z,78.75
2023-06-21T07:15:05.020Z,73.12
2023-06-21T07:16:05.003Z,73.12
2023-06-21T07:17:05.002Z,67.50
2023-06-21T07:18:05.098Z,67.50
2023-06-21T07:19:04.997Z,67.50
2023-06-21T07:20:05.031Z,67.50
2023-06-21T07:21:04.955Z,67.50
2023-06-21T07:22:04.954Z,67.50
2023-06-21T07:23:04.973Z,67.50
2023-06-21T07:24:04.948Z,78.75
2023-06-21T07:25:04.926Z,73.12
2023-06-21T07:26:04.913Z,67.50
2023-06-21T07:27:04.912Z,73.12
2023-06-21T07:28:04.894Z,67.50
2023-06-21T07:29:04.881Z,67.50
2023-06-21T07:30:04.874Z,73.12
2023-06-21T07:31:04.873Z,73.12
2023-06-21T07:32:04.857Z,73.12
2023-06-21T07:33:04.928Z,73.12
2023-06-21T07:34:08.668Z,67.50
2023-06-21T07:35:04.819Z,73.12
2023-06-21T07:36:04.798Z,73.12
2023-06-21T07:37:04.792Z,73.12
2023-06-21T07:38:04.797Z,78.75
2023-06-21T07:39:04.778Z,78.75
2023-06-21T07:40:04.761Z,73.12
2023-06-21T07:41:04.765Z,73.12
2023-06-21T07:42:13.180Z,84.38
2023-06-21T07:43:04.723Z,73.12
2023-06-21T07:44:04.739Z,73.12
2023-06-21T07:45:04.700Z,78.75
2023-06-21T07:46:15.244Z,78.75
2023-06-21T07:47:04.708Z,78.75
2023-06-21T07:48:04.729Z,84.38
2023-06-21T07:49:04.666Z,78.75
2023-06-21T07:50:17.048Z,78.75
2023-06-21T07:51:04.654Z,73.12
2023-06-21T07:52:04.641Z,73.12
2023-06-21T07:53:04.652Z,73.12
2023-06-21T07:54:04.608Z,73.12
2023-06-21T07:55:04.592Z,67.50
2023-06-21T07:56:04.598Z,73.12
2023-06-21T07:57:04.579Z,78.75
2023-06-21T07:58:04.579Z,73.12
2023-06-21T07:59:04.567Z,73.12
2023-06-21T08:00:04.583Z,67.50
2023-06-21T08:01:04.528Z,67.50
2023-06-21T08:02:04.568Z,67.50
2023-06-21T08:03:04.545Z,73.12
2023-06-21T08:04:04.552Z,73.12
2023-06-21T08:05:04.511Z,78.75
2023-06-21T08:06:04.495Z,78.75
2023-06-21T08:07:04.468Z,78.75
2023-06-21T08:08:04.459Z,84.38
2023-06-21T08:09:04.469Z,78.75
2023-06-21T08:10:04.446Z,78.75
2023-06-21T08:11:04.442Z,84.38
2023-06-21T08:12:04.427Z,84.38
2023-06-21T08:13:04.415Z,78.75
2023-06-21T08:14:04.396Z,73.12
2023-06-21T08:15:04.403Z,73.12
2023-06-21T08:16:04.373Z,67.50
2023-06-21T08:17:04.378Z,61.88
2023-06-21T08:18:04.394Z,67.50
2023-06-21T08:19:04.345Z,61.88
2023-06-21T08:20:04.341Z,61.88
2023-06-21T08:21:04.350Z,67.50
2023-06-21T08:22:04.336Z,78.75
2023-06-21T08:23:04.314Z,67.50
2023-06-21T08:24:04.313Z,61.88
2023-06-21T08:25:04.293Z,73.12
2023-06-21T08:26:04.278Z,73.12
2023-06-21T08:27:04.263Z,73.12
2023-06-21T08:28:04.269Z,84.38
2023-06-21T08:29:04.246Z,95.62
2023-06-21T08:30:04.233Z,78.75
2023-06-21T08:31:04.251Z,67.50
2023-06-21T08:32:04.226Z,67.50
2023-06-21T08:33:04.289Z,67.50
2023-06-21T08:34:04.192Z,67.50
2023-06-21T08:35:04.174Z,67.50
2023-06-21T08:36:04.172Z,90.00
2023-06-21T08:37:04.184Z,90.00
2023-06-21T08:38:18.490Z,90.00
2023-06-21T08:39:04.171Z,78.75
2023-06-21T08:40:04.201Z,78.75
2023-06-21T08:41:04.135Z,78.75
2023-06-21T08:42:04.111Z,78.75
2023-06-21T08:43:04.099Z,67.50
2023-06-21T08:44:04.087Z,67.50
2023-06-21T08:45:04.080Z,61.88
2023-06-21T08:46:05.920Z,61.88
2023-06-21T08:47:04.072Z,56.25
2023-06-21T08:48:04.100Z,61.88
2023-06-21T08:49:04.058Z,56.25
2023-06-21T08:50:04.049Z,56.25
2023-06-21T08:51:04.023Z,61.88
2023-06-21T08:52:04.015Z,56.25
2023-06-21T08:53:04.001Z,61.88
2023-06-21T08:54:03.986Z,67.50
2023-06-21T08:55:03.970Z,90.00
2023-06-21T08:56:03.977Z,101.25
2023-06-21T08:57:03.966Z,101.25
2023-06-21T08:58:05.176Z,101.25
2023-06-21T08:59:03.965Z,95.62
2023-06-21T09:00:03.921Z,84.38
2023-06-21T09:01:03.973Z,84.38
2023-06-21T09:02:04.210Z,90.00
2023-06-21T09:03:04.031Z,90.00
2023-06-21T09:04:04.260Z,106.88
2023-06-21T09:05:03.915Z,90.00
2023-06-21T09:06:03.899Z,73.12
2023-06-21T09:07:03.886Z,67.50
2023-06-21T09:08:05.575Z,61.88
2023-06-21T09:09:03.959Z,61.88
2023-06-21T09:10:03.968Z,67.50
2023-06-21T09:11:03.870Z,78.75
2023-06-21T09:12:03.838Z,78.75
2023-06-21T09:13:03.803Z,56.25
2023-06-21T09:14:05.128Z,61.88
2023-06-21T09:15:03.780Z,73.12
2023-06-21T09:16:03.771Z,73.12
2023-06-21T09:17:03.786Z,95.62
2023-06-21T09:18:03.812Z,90.00
2023-06-21T09:19:03.743Z,84.38
2023-06-21T09:20:03.736Z,73.12
2023-06-21T09:21:03.725Z,61.88
2023-06-21T09:22:03.712Z,56.25
2023-06-21T09:23:03.721Z,61.88
2023-06-21T09:24:03.696Z,78.75
2023-06-21T09:25:03.728Z,78.75
2023-06-21T09:26:03.676Z,78.75
2023-06-21T09:27:03.674Z,67.50
2023-06-21T09:28:03.672Z,56.25
2023-06-21T09:29:03.641Z,56.25
2023-06-21T09:30:23.158Z,61.88
2023-06-21T09:31:03.635Z,56.25
2023-06-21T09:32:03.600Z,56.25
2023-06-21T09:33:03.692Z,73.12
2023-06-21T09:34:03.671Z,73.12
2023-06-21T09:35:03.577Z,73.12
2023-06-21T09:36:03.567Z,84.38
2023-06-21T09:37:03.559Z,95.62
2023-06-21T09:38:03.537Z,95.62
2023-06-21T09:39:03.532Z,101.25
2023-06-21T09:40:03.540Z,106.88
2023-06-21T09:41:03.507Z,106.88
2023-06-21T09:42:03.498Z,106.88
2023-06-21T09:43:03.487Z,95.62
2023-06-21T09:44:03.500Z,84.38
2023-06-21T09:45:03.463Z,84.38
2023-06-21T09:46:03.469Z,90.00
2023-06-21T09:47:03.450Z,84.38
2023-06-21T09:48:03.511Z,90.00
2023-06-21T09:49:03.541Z,90.00
2023-06-21T09:50:03.446Z,78.75
2023-06-21T09:51:03.416Z,67.50
2023-06-21T09:52:03.404Z,61.88
2023-06-21T09:53:03.383Z,61.88
2023-06-21T09:54:03.374Z,73.12
2023-06-21T09:55:03.358Z,101.25
2023-06-21T09:56:03.378Z,95.62
2023-06-21T09:57:03.338Z,84.38
2023-06-21T09:58:03.332Z,84.38
2023-06-21T09:59:03.326Z,73.12
2023-06-21T10:00:03.450Z,78.75
2023-06-21T10:01:03.343Z,73.12
2023-06-21T10:02:03.308Z,78.75
2023-06-21T10:03:03.307Z,73.12
2023-06-21T10:04:03.475Z,67.50
2023-06-21T10:05:03.279Z,73.12
2023-06-21T10:06:03.267Z,73.12
2023-06-21T10:07:04.635Z,67.50
2023-06-21T10:08:03.230Z,73.12
2023-06-21T10:09:03.212Z,73.12
2023-06-21T10:10:03.224Z,78.75
2023-06-21T10:11:03.219Z,84.38
2023-06-21T10:12:03.228Z,78.75
2023-06-21T10:13:03.177Z,73.12
2023-06-21T10:14:03.169Z,78.75
2023-06-21T10:15:03.160Z,73.12
2023-06-21T10:16:03.165Z,61.88
2023-06-21T10:17:03.133Z,67.50
2023-06-21T10:18:05.947Z,67.50
2023-06-21T10:19:03.117Z,73.12
2023-06-21T10:20:03.134Z,73.12
2023-06-21T10:21:03.106Z,73.12
2023-06-21T10:22:03.109Z,67.50
2023-06-21T10:23:03.099Z,73.12
2023-06-21T10:24:03.065Z,73.12
2023-06-21T10:25:05.048Z,73.12
2023-06-21T10:26:03.035Z,73.12
2023-06-21T10:27:03.029Z,73.12
2023-06-21T10:28:03.165Z,84.38
2023-06-21T10:29:03.038Z,78.75
2023-06-21T10:30:03.012Z,84.38
2023-06-21T10:31:02.993Z,78.75
2023-06-21T10:32:03.028Z,84.38
2023-06-21T10:33:03.010Z,84.38
2023-06-21T10:34:02.993Z,78.75
2023-06-21T10:35:02.943Z,73.12
2023-06-21T10:36:02.949Z,73.12
2023-06-21T10:37:02.948Z,73.12
2023-06-21T10:38:02.958Z,78.75
2023-06-21T10:39:02.901Z,73.12
2023-06-21T10:40:10.656Z,78.75
2023-06-21T10:41:02.914Z,78.75
2023-06-21T10:42:02.936Z,73.12
2023-06-21T10:43:02.877Z,73.12
2023-06-21T10:44:02.858Z,73.12
2023-06-21T10:45:02.839Z,67.50
2023-06-21T10:46:02.842Z,67.50
2023-06-21T10:47:02.845Z,67.50
2023-06-21T10:48:02.857Z,73.12
2023-06-21T10:49:02.812Z,78.75
2023-06-21T10:50:02.799Z,78.75
2023-06-21T10:51:02.786Z,84.38
2023-06-21T10:52:02.772Z,84.38
2023-06-21T10:53:02.835Z,90.00
2023-06-21T10:54:02.756Z,95.62
2023-06-21T10:55:02.739Z,106.88
2023-06-21T10:56:02.778Z,73.12
2023-06-21T10:57:02.746Z,67.50
2023-06-21T10:58:02.713Z,67.50
2023-06-21T10:59:02.695Z,61.88
2023-06-21T11:00:02.694Z,50.62
2023-06-21T11:01:02.737Z,45.00
2023-06-21T11:02:02.676Z,39.38
2023-06-21T11:03:02.752Z,45.00
2023-06-21T11:04:02.697Z,56.25
2023-06-21T11:05:02.769Z,73.12
2023-06-21T11:06:02.629Z,78.75
2023-06-21T11:07:02.635Z,78.75
2023-06-21T11:08:02.632Z,73.12
2023-06-21T11:09:02.611Z,73.12
2023-06-21T11:10:02.587Z,78.75
2023-06-21T11:11:02.576Z,78.75
2023-06-21T11:12:02.570Z,73.12
2023-06-21T11:13:02.551Z,67.50
2023-06-21T11:14:02.576Z,61.88
2023-06-21T11:15:02.536Z,50.62
2023-06-21T11:16:02.526Z,45.00
2023-06-21T11:17:02.536Z,45.00
2023-06-21T11:18:02.644Z,45.00
2023-06-21T11:19:02.515Z,45.00
2023-06-21T11:20:02.483Z,45.00
2023-06-21T11:21:02.486Z,50.62
2023-06-21T11:22:03.372Z,73.12
2023-06-21T11:23:02.566Z,78.75
2023-06-21T11:24:02.501Z,84.38
2023-06-21T11:25:02.586Z,84.38
2023-06-21T11:26:02.423Z,78.75
2023-06-21T11:27:02.409Z,78.75
2023-06-21T11:28:02.400Z,84.38
2023-06-21T11:29:02.397Z,90.00
2023-06-21T11:30:02.694Z,112.50
2023-06-21T11:31:02.410Z,106.88
2023-06-21T11:32:02.360Z,90.00
2023-06-21T11:33:02.410Z,78.75
2023-06-21T11:34:03.711Z,78.75
2023-06-21T11:35:02.447Z,73.12
2023-06-21T11:36:02.349Z,73.12
2023-06-21T11:37:02.303Z,84.38
2023-06-21T11:38:02.297Z,90.00
2023-06-21T11:39:02.287Z,101.25
2023-06-21T11:40:02.304Z,84.38
2023-06-21T11:41:02.268Z,73.12
2023-06-21T11:42:02.271Z,73.12
2023-06-21T11:43:02.246Z,67.50
2023-06-21T11:44:02.246Z,61.88
2023-06-21T11:45:02.220Z,61.88
2023-06-21T11:46:02.250Z,61.88
2023-06-21T11:47:02.213Z,61.88
2023-06-21T11:48:02.335Z,50.62
2023-06-21T11:49:02.180Z,56.25
2023-06-21T11:50:02.220Z,56.25
2023-06-21T11:51:02.176Z,61.88
2023-06-21T11:52:02.201Z,56.25
2023-06-21T11:53:02.136Z,61.88
2023-06-21T11:54:02.136Z,56.25
2023-06-21T11:55:02.135Z,56.25
2023-06-21T11:56:02.107Z,67.50
2023-06-21T11:57:02.102Z,67.50
2023-06-21T11:58:02.116Z,67.50
2023-06-21T11:59:02.071Z,61.88
2023-06-21T12:00:02.063Z,67.50
2023-06-21T12:01:02.067Z,67.50
2023-06-21T12:02:02.177Z,73.12
2023-06-21T12:03:02.132Z,67.50
2023-06-21T12:04:02.138Z,73.12
2023-06-21T12:05:02.120Z,67.50
2023-06-21T12:06:02.039Z,61.88
2023-06-21T12:07:01.989Z,67.50
2023-06-21T12:08:01.974Z,73.12
2023-06-21T12:09:01.967Z,90.00
2023-06-21T12:10:01.968Z,84.38
2023-06-21T12:11:01.947Z,90.00
2023-06-21T12:12:01.980Z,90.00
2023-06-21T12:13:01.929Z,95.62
2023-06-21T12:14:01.934Z,90.00
2023-06-21T12:15:01.899Z,84.38
2023-06-21T12:16:01.933Z,84.38
2023-06-21T12:17:01.881Z,95.62
2023-06-21T12:18:01.928Z,95.62
2023-06-21T12:19:01.879Z,90.00
2023-06-21T12:20:01.866Z,90.00
2023-06-21T12:21:01.841Z,90.00
2023-06-21T12:22:01.826Z,90.00
2023-06-21T12:23:01.847Z,90.00
2023-06-21T12:24:01.812Z,90.00
2023-06-21T12:25:01.821Z,84.38
2023-06-21T12:26:01.793Z,84.38
2023-06-21T12:27:01.790Z,84.38
2023-06-21T12:28:01.808Z,78.75
2023-06-21T12:29:01.787Z,84.38
2023-06-21T12:30:01.746Z,90.00
2023-06-21T12:31:01.777Z,95.62
2023-06-21T12:32:01.738Z,95.62
2023-06-21T12:33:01.810Z,95.62
2023-06-21T12:34:01.737Z,90.00
2023-06-21T12:35:01.701Z,90.00
2023-06-21T12:36:01.710Z,84.38
2023-06-21T12:37:01.702Z,78.75
2023-06-21T12:38:01.684Z,67.50
2023-06-21T12:39:01.664Z,61.88
2023-06-21T12:40:01.687Z,61.88
2023-06-21T12:41:01.658Z,56.25
2023-06-21T12:42:01.640Z,56.25
2023-06-21T12:43:01.620Z,56.25
2023-06-21T12:44:01.709Z,56.25
2023-06-21T12:45:01.602Z,50.62
2023-06-21T12:46:01.674Z,50.62
2023-06-21T12:47:01.580Z,50.62
2023-06-21T12:48:01.685Z,56.25
2023-06-21T12:49:01.573Z,50.62
2023-06-21T12:50:01.611Z,39.38
2023-06-21T12:51:01.616Z,39.38
2023-06-21T12:52:01.631Z,39.38
2023-06-21T12:53:01.527Z,33.75
2023-06-21T12:54:01.612Z,33.75
2023-06-21T12:55:01.517Z,45.00
2023-06-21T12:56:01.495Z,45.00
2023-06-21T12:57:01.491Z,45.00